createdAt,value
2019-05-02T00:01:06.353Z,7.10
2019-05-02T00:06:11.377Z,7.00
2019-05-02T00:11:17.053Z,7.00
2019-05-02T00:16:24.571Z,7.00
2019-05-02T00:21:38.241Z,7.00
2019-05-02T00:27:01.351Z,6.90
2019-05-02T00:32:07.663Z,6.90
2019-05-02T00:37:41.877Z,6.80
2019-05-02T00:42:43.473Z,6.70
2019-05-02T00:47:52.737Z,6.60
2019-05-02T00:53:18.709Z,6.60
2019-05-02T00:58:27.369Z,6.60
2019-05-02T01:03:38.234Z,6.60
2019-05-02T01:09:05.933Z,6.60
2019-05-02T01:14:14.641Z,6.60
2019-05-02T01:19:19.125Z,6.60
2019-05-02T01:24:48.451Z,6.50
2019-05-02T01:30:01.596Z,6.50
2019-05-02T01:35:07.861Z,6.50
2019-05-02T01:40:12.971Z,6.60
2019-05-02T01:45:20.550Z,6.70
2019-05-02T01:50:21.999Z,6.80
2019-05-02T01:55:52.063Z,7.00
2019-05-02T02:01:06.305Z,7.10
2019-05-02T02:06:17.728Z,7.00
2019-05-02T02:11:22.347Z,6.90
2019-05-02T02:16:26.788Z,6.80
2019-05-02T02:21:43.021Z,6.70
2019-05-02T02:26:49.794Z,6.60
2019-05-02T02:31:57.515Z,6.60
2019-05-02T02:37:15.209Z,6.50
2019-05-02T02:42:16.677Z,6.50
2019-05-02T02:47:21.389Z,6.40
2019-05-02T02:52:44.586Z,6.40
2019-05-02T02:57:41.532Z,6.30
2019-05-02T03:02:58.160Z,6.20
2019-05-02T03:08:07.052Z,6.20
2019-05-02T03:13:21.781Z,6.30
2019-05-02T03:18:26.603Z,6.30
2019-05-02T03:23:31.487Z,6.30
2019-05-02T03:29:00.654Z,6.30
2019-05-02T03:34:15.438Z,6.20
2019-05-02T03:39:23.204Z,6.20
2019-05-02T03:44:36.719Z,6.10
2019-05-02T03:49:52.378Z,6.10
2019-05-02T03:54:57.595Z,6.10
2019-05-02T03:59:58.921Z,6.20
2019-05-02T04:05:04.994Z,6.40
2019-05-02T04:10:34.629Z,6.60
2019-05-02T04:15:45.321Z,6.80
2019-05-02T04:21:08.654Z,6.90
2019-05-02T04:26:37.206Z,7.00
2019-05-02T04:31:46.994Z,7.10
2019-05-02T04:37:26.838Z,7.10
2019-05-02T04:42:43.329Z,7.20
2019-05-02T04:47:57.523Z,7.10
2019-05-02T04:52:53.648Z,7.20
2019-05-02T04:57:51.430Z,7.30
2019-05-02T05:02:53.371Z,7.30
2019-05-02T05:08:03.057Z,7.30
2019-05-02T05:13:26.250Z,7.40
2019-05-02T05:18:37.799Z,7.60
2019-05-02T05:24:01.020Z,7.70
2019-05-02T05:28:59.853Z,7.90
2019-05-02T05:34:32.731Z,8.10
2019-05-02T05:39:38.165Z,8.20
2019-05-02T05:44:42.935Z,8.50
2019-05-02T05:49:44.383Z,8.80
2019-05-02T05:55:00.819Z,9.00
2019-05-02T06:00:11.540Z,9.30
2019-05-02T06:05:17.470Z,9.60
2019-05-02T06:10:18.985Z,10.10
2019-05-02T06:15:23.593Z,10.30
2019-05-02T06:20:30.623Z,10.50
2019-05-02T06:25:36.722Z,10.70
2019-05-02T06:30:44.797Z,10.80
2019-05-02T06:35:51.904Z,11.00
2019-05-02T06:40:54.626Z,11.40
2019-05-02T06:45:56.094Z,11.70
2019-05-02T06:50:57.397Z,11.80
2019-05-02T06:56:08.049Z,12.20
2019-05-02T07:01:21.308Z,12.80
2019-05-02T07:06:25.539Z,13.40
2019-05-02T07:11:33.205Z,13.70
2019-05-02T07:16:49.582Z,13.90
2019-05-02T07:21:53.209Z,14.20
2019-05-02T07:26:56.925Z,14.30
2019-05-02T07:31:56.561Z,14.20
2019-05-02T07:37:08.539Z,14.30
2019-05-02T07:42:08.475Z,14.70
2019-05-02T07:47:09.839Z,14.90
2019-05-02T07:52:12.275Z,14.80
2019-05-02T07:57:16.063Z,14.90
2019-05-02T08:02:20.323Z,15.10
2019-05-02T08:07:25.867Z,15.10
2019-05-02T08:12:28.384Z,15.30
2019-05-02T08:17:32.908Z,16.00
2019-05-02T08:22:34.396Z,16.20
2019-05-02T08:28:15.857Z,16.30
2019-05-02T08:33:23.877Z,16.20
2019-05-02T08:38:28.568Z,16.20
2019-05-02T08:43:33.111Z,16.20
2019-05-02T08:48:41.701Z,16.40
2019-05-02T08:53:40.547Z,16.80
2019-05-02T08:58:56.146Z,16.90
2019-05-02T09:03:57.614Z,17.20
2019-05-02T09:09:01.241Z,17.40
2019-05-02T09:14:05.889Z,17.50
2019-05-02T09:19:13.533Z,17.50
2019-05-02T09:24:20.696Z,17.60
2019-05-02T09:29:17.564Z,18.00
2019-05-02T09:34:28.066Z,18.10
2019-05-02T09:39:41.528Z,17.80
2019-05-02T09:44:56.906Z,17.70
2019-05-02T09:50:20.561Z,17.60
2019-05-02T09:55:25.648Z,17.40
2019-05-02T10:00:52.494Z,17.00
2019-05-02T10:05:55.448Z,16.00
2019-05-02T10:10:58.013Z,15.50
2019-05-02T10:16:01.935Z,15.10
2019-05-02T10:21:07.878Z,14.90
2019-05-02T10:26:20.008Z,14.50
2019-05-02T10:31:27.711Z,14.30
2019-05-02T10:36:32.383Z,14.20
2019-05-02T10:41:43.638Z,14.00
2019-05-02T10:46:53.403Z,13.90
2019-05-02T10:51:56.757Z,13.90
2019-05-02T10:57:03.985Z,14.20
2019-05-02T11:02:08.374Z,14.40
2019-05-02T11:07:17.231Z,14.30
2019-05-02T11:18:52.290Z,14.20
2019-05-02T11:24:14.369Z,14.60
2019-05-02T11:29:22.778Z,15.20
2019-05-02T11:34:30.185Z,15.40
2019-05-02T11:39:44.306Z,15.50
2019-05-02T11:44:38.159Z,15.50
2019-05-02T11:49:46.773Z,15.50
2019-05-02T11:55:13.914Z,15.00
2019-05-02T12:00:32.436Z,14.30
2019-05-02T12:05:42.053Z,13.80
2019-05-02T12:10:43.944Z,13.30
2019-05-02T12:15:46.436Z,13.00
2019-05-02T12:21:06.034Z,13.00
2019-05-02T12:26:07.420Z,12.90
2019-05-02T12:31:35.567Z,13.00
2019-05-02T12:36:58.969Z,13.10
2019-05-02T12:42:06.712Z,13.00
2019-05-02T12:47:22.434Z,12.90
2019-05-02T12:52:25.282Z,12.70
2019-05-02T12:57:32.000Z,12.60
2019-05-02T13:02:43.929Z,12.70
2019-05-02T13:07:55.288Z,12.60
2019-05-02T13:12:57.367Z,12.70
2019-05-02T13:18:02.978Z,12.70
2019-05-02T13:23:27.308Z,12.80
2019-05-02T13:28:32.480Z,12.80
2019-05-02T13:33:42.807Z,12.90
2019-05-02T13:38:51.881Z,13.00
2019-05-02T13:43:54.312Z,13.20
2019-05-02T13:49:02.151Z,13.40
2019-05-02T13:54:12.424Z,13.90
2019-05-02T13:59:37.103Z,14.00
2019-05-02T14:04:46.674Z,14.00
2019-05-02T14:09:57.447Z,13.80
2019-05-02T14:15:10.886Z,14.00
2019-05-02T14:20:17.824Z,14.10
2019-05-02T14:25:19.353Z,14.10
2019-05-02T14:30:40.084Z,14.30
2019-05-02T14:35:39.135Z,14.20
2019-05-02T14:40:47.238Z,14.30
2019-05-02T14:46:12.451Z,14.20
2019-05-02T14:51:16.818Z,13.90
2019-05-02T14:56:47.563Z,13.40
2019-05-02T15:02:07.835Z,13.10
2019-05-02T15:07:17.651Z,13.10
2019-05-02T15:12:19.233Z,13.30
2019-05-02T15:17:38.230Z,13.30
2019-05-02T15:22:42.941Z,13.20
2019-05-02T15:27:58.181Z,13.00
2019-05-02T15:33:02.956Z,12.90
2019-05-02T15:38:14.481Z,13.10
2019-05-02T15:43:31.805Z,13.00
2019-05-02T15:48:33.564Z,12.80
2019-05-02T15:53:46.722Z,12.50
2019-05-02T15:58:42.957Z,12.30
2019-05-02T16:03:48.468Z,12.30
2019-05-02T16:08:55.705Z,12.50
2019-05-02T16:13:57.214Z,12.70
2019-05-02T16:19:24.855Z,13.00
2019-05-02T16:24:24.384Z,13.30
2019-05-02T16:29:45.726Z,13.40
2019-05-02T16:34:58.362Z,13.50
2019-05-02T16:40:08.610Z,13.70
2019-05-02T16:45:38.163Z,13.70
2019-05-02T16:50:39.544Z,13.80
2019-05-02T16:55:58.409Z,13.90
2019-05-02T17:01:06.118Z,14.00
2019-05-02T17:06:25.990Z,13.80
2019-05-02T17:11:42.199Z,13.40
2019-05-02T17:17:33.252Z,13.10
2019-05-02T17:22:36.554Z,13.20
2019-05-02T17:28:01.164Z,13.20
2019-05-02T17:33:50.967Z,12.90
2019-05-02T17:38:54.406Z,12.90
2019-05-02T17:44:12.907Z,13.00
2019-05-02T17:49:23.074Z,12.90
2019-05-02T17:54:57.525Z,12.70
2019-05-02T18:00:16.586Z,12.50
2019-05-02T18:05:15.670Z,12.30
2019-05-02T18:10:44.082Z,12.30
2019-05-02T18:15:48.897Z,12.10
2019-05-02T18:20:53.562Z,12.00
2019-05-02T18:26:11.491Z,11.90
2019-05-02T18:31:18.114Z,11.80
2019-05-02T18:36:37.741Z,11.60
2019-05-02T18:41:49.294Z,11.40
2019-05-02T18:46:51.937Z,11.20
2019-05-02T18:51:57.278Z,11.10
2019-05-02T18:57:24.430Z,11.00
2019-05-02T19:02:32.706Z,10.80
2019-05-02T19:07:52.018Z,10.70
2019-05-02T19:12:51.061Z,10.50
2019-05-02T19:17:55.708Z,10.40
2019-05-02T19:23:29.590Z,10.20
2019-05-02T19:28:47.390Z,10.10
2019-05-02T19:33:48.933Z,9.90
2019-05-02T19:38:56.917Z,9.70
2019-05-02T19:44:15.352Z,9.60
2019-05-02T19:49:19.242Z,9.50
2019-05-02T19:54:23.789Z,9.30
2019-05-02T19:59:32.114Z,9.10
2019-05-02T20:04:52.913Z,8.90
2019-05-02T20:09:56.360Z,8.70
2019-05-02T20:14:57.924Z,8.60
2019-05-02T20:20:14.427Z,8.40
2019-05-02T20:25:19.858Z,8.30
2019-05-02T20:30:22.484Z,8.30
2019-05-02T20:35:32.382Z,8.30
2019-05-02T20:40:49.041Z,8.30
2019-05-02T20:45:52.577Z,8.20
2019-05-02T20:51:11.985Z,8.20
2019-05-02T20:56:13.181Z,8.10
2019-05-02T21:01:19.766Z,8.00
2019-05-02T21:06:40.554Z,7.90
2019-05-02T21:11:41.757Z,7.80
2019-05-02T21:17:05.003Z,7.70
2019-05-02T21:22:35.044Z,7.60
2019-05-02T21:28:09.116Z,7.50
2019-05-02T21:33:52.032Z,7.40
2019-05-02T21:39:17.436Z,7.30
2019-05-02T21:44:38.710Z,7.20
2019-05-02T21:49:45.181Z,7.20
2019-05-02T21:55:01.912Z,7.10
2019-05-02T22:00:42.179Z,7.00
2019-05-02T22:05:44.143Z,7.00
2019-05-02T22:10:49.188Z,7.00
2019-05-02T22:15:51.620Z,7.10
2019-05-02T22:21:01.718Z,7.10
2019-05-02T22:27:01.776Z,7.10
2019-05-02T22:32:09.154Z,7.00
2019-05-02T22:37:12.568Z,7.00
2019-05-02T22:42:17.529Z,7.10
2019-05-02T22:47:19.007Z,7.10
2019-05-02T22:52:52.246Z,7.10
2019-05-02T22:58:18.833Z,7.10
2019-05-02T23:03:26.185Z,7.10
2019-05-02T23:08:43.524Z,7.10
2019-05-02T23:13:49.299Z,7.20
2019-05-02T23:18:58.512Z,7.30
2019-05-02T23:24:16.339Z,7.30
2019-05-02T23:29:22.593Z,7.30
2019-05-02T23:34:27.192Z,7.30
2019-05-02T23:39:29.668Z,7.30
2019-05-02T23:44:37.254Z,7.40
2019-05-02T23:49:48.901Z,7.40
2019-05-02T23:55:17.527Z,7.50
